• Join FlightAware (Why Join?)
  • Login
  • US Flag 
02:03PM EST


 

Airport Tracker/Info


-or-


 

Live Flight TrackerFlight Track Log ✈ FIN666 ✈ 13-Mar-2014 ✈ EKCH / CPH - EFHK / HEL

Flight Track Log - Related Links

Times and Time Zones

All times are in EDT time to prevent confusion due to time zone crossing. See the FIN666 flight status page for this flight to view local times or setup timezone preferences in your user account.

Time Position Orientation Groundspeed Altitude Reporting Facility
EDT Latitude Longitude Course Direction KTS MPH feet Rate Location/Type
08:24AM 55.8329 13.1000 49° Northeast  Level Estimated
08:25AM 55.9042 13.2491 50° Northeast  Level Estimated
08:26AM 55.9753 13.3988 50° Northeast  Level Estimated
08:27AM 56.0482 13.5532 50° Northeast  Level Estimated
08:28AM 56.1209 13.7083 50° Northeast  Level Estimated
08:29AM 56.1935 13.8639 50° Northeast  Level Estimated
08:30AM 56.2658 14.0201 50° Northeast  Level Estimated
08:31AM 56.3379 14.1769 50° Northeast  Level Estimated
08:32AM 56.4099 14.3343 50° Northeast  Level Estimated
08:33AM 56.4816 14.4922 51° Northeast  Level Estimated
08:34AM 56.5532 14.6508 51° Northeast  Level Estimated
08:35AM 56.6245 14.8100 51° Northeast  Level Estimated
08:36AM 56.6956 14.9698 51° Northeast  Level Estimated
08:37AM 56.7666 15.1302 51° Northeast  Level Estimated
08:38AM 56.8373 15.2912 51° Northeast  Level Estimated
08:39AM 56.9078 15.4528 51° Northeast  Level Estimated
08:40AM 56.9781 15.6150 51° Northeast  Level Estimated
08:41AM 57.0482 15.7778 52° Northeast  Level Estimated
08:42AM 57.1181 15.9412 52° Northeast  Level Estimated
08:43AM 57.1878 16.1053 52° Northeast  Level Estimated
08:44AM 57.2572 16.2700 52° Northeast  Level Estimated
08:45AM 57.3275 16.4376 52° Northeast  Level Estimated
08:46AM 57.3975 16.6059 52° Northeast  Level Estimated
08:47AM 57.4673 16.7749 52° Northeast  Level Estimated
08:48AM 57.5368 16.9445 53° Northeast  Level Estimated
08:49AM 57.6061 17.1147 53° Northeast  Level Estimated
08:50AM 57.6752 17.2856 53° Northeast  Level Estimated
08:51AM 57.7441 17.4571 53° Northeast  Level Estimated
08:52AM 57.8127 17.6294 53° Northeast  Level Estimated
08:53AM 57.8811 17.8022 53° Northeast  Level Estimated
08:54AM 57.9493 17.9757 53° Northeast  Level Estimated
08:55AM 58.0172 18.1499 54° Northeast  Level Estimated
08:56AM 58.0849 18.3247 54° Northeast  Level Estimated
08:57AM 58.1523 18.5002 54° Northeast  Level Estimated
08:58AM 58.2195 18.6763 54° Northeast  Level Estimated
08:59AM 58.2865 18.8532 54° Northeast  Level Estimated
09:00AM 58.3532 19.0307 54° Northeast  Level Estimated
09:01AM 58.4197 19.2088 54° Northeast  Level Estimated
09:02AM 58.4859 19.3877 55° Northeast  Level Estimated
09:03AM 58.5518 19.5672 55° Northeast  Level Estimated
09:04AM 58.6176 19.7474 55° Northeast  Level Estimated
09:05AM 58.6830 19.9282 55° Northeast  Level Estimated
09:06AM 58.7482 20.1098 55° Northeast  Level Estimated
09:07AM 58.8132 20.2920 55° Northeast  Level Estimated
09:08AM 58.8779 20.4749 56° Northeast  Level Estimated
09:09AM 58.9423 20.6585 56° Northeast  Level Estimated
09:10AM 59.0065 20.8428 56° Northeast  Level Estimated
09:11AM 59.0704 21.0277 56° Northeast  Level Estimated
09:12AM 59.1341 21.2134 56° Northeast  Level Estimated
09:13AM 59.1975 21.3997 56° Northeast  Level Estimated
09:14AM 59.2597 21.5841 57° Northeast  Level Estimated
09:15AM 59.3217 21.7692 57° Northeast  Level Estimated
09:16AM 59.3834 21.9549 57° Northeast  Level Estimated
09:17AM 59.4448 22.1413 57° Northeast  Level Estimated
09:18AM 59.5060 22.3284 57° Northeast  Level Estimated
09:19AM 59.5669 22.5162 57° Northeast  Level Estimated
09:20AM 59.6275 22.7047 57° Northeast  Level Estimated
09:21AM 59.6879 22.8938 58° Northeast  Level Estimated
09:22AM 59.7480 23.0836 58° Northeast  Level Estimated
09:23AM 59.8078 23.2741 58° Northeast  Level Estimated
09:24AM 59.8673 23.4653 58° Northeast  Level Estimated
09:25AM 59.9266 23.6571 58° Northeast  Level Estimated
09:26AM 59.9856 23.8497 58° Northeast  Level Estimated
09:27AM 60.0443 24.0429 59° Northeast  Level Estimated
09:28AM 60.1027 24.2368 59° Northeast  Level Estimated
09:29AM 60.1608 24.4314 59° Northeast  Level Estimated
09:30AM 60.2187 24.6267 59° Northeast  Level Estimated
09:31AM 60.2762 24.8227 59° Northeast  Level Estimated
09:32AM 60.3172 24.9633 59° Northeast  Level Estimated
09:33AM 60.3172 24.9633 North  Level Estimated
09:34AM 60.3172 24.9633 North  Level Estimated
09:35AM 60.3172 24.9633 North  Level Estimated
09:36AM 60.3172 24.9633 North  Level Estimated
09:37AM 60.3172 24.9633 North  Level Estimated
09:38AM 60.3172 24.9633 North  Level Estimated
09:39AM 60.3172 24.9633 North  Level Estimated
09:40AM 60.3172 24.9633 North  Level Estimated
09:41AM 60.3172 24.9633 North  Level Estimated
09:42AM 60.3172 24.9633 North  Level Estimated
09:43AM 60.3172 24.9633 North  Level Estimated